sensor_id;sensor_type;location;lat;lon;timestamp;temperature;humidity
13585;DHT22;6863;48.402;9.994;2022-11-20T00:00:50;4.50;99.90
13585;DHT22;6863;48.402;9.994;2022-11-20T00:03:16;4.50;99.90
13585;DHT22;6863;48.402;9.994;2022-11-20T00:05:42;4.50;99.90
13585;DHT22;6863;48.402;9.994;2022-11-20T00:08:08;4.50;99.90
13585;DHT22;6863;48.402;9.994;2022-11-20T00:10:37;4.40;99.90
13585;DHT22;6863;48.402;9.994;2022-11-20T00:13:03;4.30;99.90
13585;DHT22;6863;48.402;9.994;2022-11-20T00:15:29;4.30;99.90
13585;DHT22;6863;48.402;9.994;2022-11-20T00:17:54;4.40;99.90
13585;DHT22;6863;48.402;9.994;2022-11-20T00:20:20;4.40;99.90
13585;DHT22;6863;48.402;9.994;2022-11-20T00:22:45;4.40;99.90
13585;DHT22;6863;48.402;9.994;2022-11-20T00:25:11;4.40;99.90
13585;DHT22;6863;48.402;9.994;2022-11-20T00:27:36;4.30;99.90
13585;DHT22;6863;48.402;9.994;2022-11-20T00:30:03;4.30;99.90
13585;DHT22;6863;48.402;9.994;2022-11-20T00:32:29;4.20;99.90
13585;DHT22;6863;48.402;9.994;2022-11-20T00:34:55;4.20;99.90
13585;DHT22;6863;48.402;9.994;2022-11-20T00:37:20;4.10;99.90
13585;DHT22;6863;48.402;9.994;2022-11-20T00:39:46;4.10;99.90
13585;DHT22;6863;48.402;9.994;2022-11-20T00:42:12;4.10;99.90
13585;DHT22;6863;48.402;9.994;2022-11-20T00:44:37;4.10;99.90
13585;DHT22;6863;48.402;9.994;2022-11-20T00:47:03;4.10;99.90
13585;DHT22;6863;48.402;9.994;2022-11-20T00:49:28;4.00;99.90
13585;DHT22;6863;48.402;9.994;2022-11-20T00:51:54;3.90;99.90
13585;DHT22;6863;48.402;9.994;2022-11-20T00:54:19;3.90;99.90
13585;DHT22;6863;48.402;9.994;2022-11-20T00:56:45;3.90;99.90
13585;DHT22;6863;48.402;9.994;2022-11-20T00:59:11;3.80;99.90
13585;DHT22;6863;48.402;9.994;2022-11-20T01:01:37;3.80;99.90
13585;DHT22;6863;48.402;9.994;2022-11-20T01:04:02;3.70;99.90
13585;DHT22;6863;48.402;9.994;2022-11-20T01:06:34;3.60;99.90
13585;DHT22;6863;48.402;9.994;2022-11-20T01:09:03;3.60;99.90
13585;DHT22;6863;48.402;9.994;2022-11-20T01:11:34;3.60;99.90
13585;DHT22;6863;48.402;9.994;2022-11-20T01:14:02;3.50;99.90
13585;DHT22;6863;48.402;9.994;2022-11-20T01:16:33;3.50;99.90
13585;DHT22;6863;48.402;9.994;2022-11-20T01:19:01;3.40;99.90
13585;DHT22;6863;48.402;9.994;2022-11-20T01:21:33;3.40;99.90
13585;DHT22;6863;48.402;9.994;2022-11-20T01:23:59;3.30;99.90
13585;DHT22;6863;48.402;9.994;2022-11-20T01:26:28;3.30;99.90
13585;DHT22;6863;48.402;9.994;2022-11-20T01:28:54;3.30;99.90
13585;DHT22;6863;48.402;9.994;2022-11-20T01:31:29;3.20;99.90
13585;DHT22;6863;48.402;9.994;2022-11-20T01:33:58;3.20;99.90
13585;DHT22;6863;48.402;9.994;2022-11-20T01:36:28;3.20;99.90
13585;DHT22;6863;48.402;9.994;2022-11-20T01:38:55;3.20;99.90
13585;DHT22;6863;48.402;9.994;2022-11-20T01:41:22;3.10;99.90
13585;DHT22;6863;48.402;9.994;2022-11-20T01:44:09;3.10;99.90
13585;DHT22;6863;48.402;9.994;2022-11-20T01:46:37;3.10;99.90
13585;DHT22;6863;48.402;9.994;2022-11-20T01:49:24;3.00;99.90
13585;DHT22;6863;48.402;9.994;2022-11-20T01:52:03;2.90;99.90
13585;DHT22;6863;48.402;9.994;2022-11-20T01:54:37;2.90;99.90
13585;DHT22;6863;48.402;9.994;2022-11-20T01:57:04;2.90;99.90
13585;DHT22;6863;48.402;9.994;2022-11-20T01:59:33;2.80;99.90
13585;DHT22;6863;48.402;9.994;2022-11-20T02:01:59;2.80;99.90
13585;DHT22;6863;48.402;9.994;2022-11-20T02:04:24;2.80;99.90
13585;DHT22;6863;48.402;9.994;2022-11-20T02:06:59;2.80;99.90
13585;DHT22;6863;48.402;9.994;2022-11-20T02:09:25;2.80;99.90
13585;DHT22;6863;48.402;9.994;2022-11-20T02:11:52;2.70;99.90
13585;DHT22;6863;48.402;9.994;2022-11-20T02:14:17;2.80;99.90
13585;DHT22;6863;48.402;9.994;2022-11-20T02:16:47;2.90;99.90
13585;DHT22;6863;48.402;9.994;2022-11-20T02:24:29;3.10;99.90
13585;DHT22;6863;48.402;9.994;2022-11-20T02:27:02;3.10;99.90
13585;DHT22;6863;48.402;9.994;2022-11-20T02:29:32;3.10;99.90
13585;DHT22;6863;48.402;9.994;2022-11-20T02:32:00;3.20;99.90
13585;DHT22;6863;48.402;9.994;2022-11-20T02:34:27;3.20;99.90
13585;DHT22;6863;48.402;9.994;2022-11-20T02:36:53;3.20;99.90
13585;DHT22;6863;48.402;9.994;2022-11-20T02:39:19;3.20;99.90
13585;DHT22;6863;48.402;9.994;2022-11-20T02:41:46;3.20;99.90
13585;DHT22;6863;48.402;9.994;2022-11-20T02:44:12;3.20;99.90
13585;DHT22;6863;48.402;9.994;2022-11-20T02:46:37;3.10;99.90
13585;DHT22;6863;48.402;9.994;2022-11-20T02:49:03;3.00;99.90
13585;DHT22;6863;48.402;9.994;2022-11-20T02:51:29;2.80;99.90
13585;DHT22;6863;48.402;9.994;2022-11-20T02:53:55;2.60;99.90
13585;DHT22;6863;48.402;9.994;2022-11-20T02:56:20;2.70;99.90
13585;DHT22;6863;48.402;9.994;2022-11-20T02:58:46;2.60;99.90
13585;DHT22;6863;48.402;9.994;2022-11-20T03:01:12;2.50;99.90
13585;DHT22;6863;48.402;9.994;2022-11-20T03:03:38;2.50;99.90
13585;DHT22;6863;48.402;9.994;2022-11-20T03:06:04;2.40;99.90
13585;DHT22;6863;48.402;9.994;2022-11-20T03:08:29;2.40;99.90
13585;DHT22;6863;48.402;9.994;2022-11-20T03:10:55;2.40;99.90
13585;DHT22;6863;48.402;9.994;2022-11-20T03:13:20;2.40;99.90
13585;DHT22;6863;48.402;9.994;2022-11-20T03:15:46;2.40;99.90
13585;DHT22;6863;48.402;9.994;2022-11-20T03:18:11;2.40;99.90
13585;DHT22;6863;48.402;9.994;2022-11-20T03:20:38;2.40;99.90
13585;DHT22;6863;48.402;9.994;2022-11-20T03:23:04;2.50;99.90
13585;DHT22;6863;48.402;9.994;2022-11-20T03:25:30;2.50;99.90
13585;DHT22;6863;48.402;9.994;2022-11-20T03:27:55;2.50;99.90
13585;DHT22;6863;48.402;9.994;2022-11-20T03:30:21;2.50;99.90
13585;DHT22;6863;48.402;9.994;2022-11-20T03:32:47;2.60;99.90
13585;DHT22;6863;48.402;9.994;2022-11-20T03:35:12;2.70;99.90
13585;DHT22;6863;48.402;9.994;2022-11-20T03:37:38;2.70;99.90
13585;DHT22;6863;48.402;9.994;2022-11-20T03:40:04;2.80;99.90
13585;DHT22;6863;48.402;9.994;2022-11-20T03:42:30;2.70;99.90
13585;DHT22;6863;48.402;9.994;2022-11-20T03:45:15;2.70;99.90
13585;DHT22;6863;48.402;9.994;2022-11-20T03:47:41;2.70;99.90
13585;DHT22;6863;48.402;9.994;2022-11-20T03:50:08;2.70;99.90
13585;DHT22;6863;48.402;9.994;2022-11-20T03:52:34;2.70;99.90
13585;DHT22;6863;48.402;9.994;2022-11-20T03:54:59;2.70;99.90
13585;DHT22;6863;48.402;9.994;2022-11-20T03:57:25;2.60;99.90
13585;DHT22;6863;48.402;9.994;2022-11-20T03:59:50;2.60;99.90
13585;DHT22;6863;48.402;9.994;2022-11-20T04:02:16;2.50;99.90
13585;DHT22;6863;48.402;9.994;2022-11-20T04:04:41;2.50;99.90
13585;DHT22;6863;48.402;9.994;2022-11-20T04:07:07;2.40;99.90
13585;DHT22;6863;48.402;9.994;2022-11-20T04:09:32;2.30;99.90
13585;DHT22;6863;48.402;9.994;2022-11-20T04:11:58;2.20;99.90
13585;DHT22;6863;48.402;9.994;2022-11-20T04:14:23;2.30;99.90
13585;DHT22;6863;48.402;9.994;2022-11-20T04:16:49;2.20;99.90
13585;DHT22;6863;48.402;9.994;2022-11-20T04:19:16;2.20;99.90
13585;DHT22;6863;48.402;9.994;2022-11-20T04:21:43;2.20;99.90
13585;DHT22;6863;48.402;9.994;2022-11-20T04:24:08;2.20;99.90
13585;DHT22;6863;48.402;9.994;2022-11-20T04:26:36;2.20;99.90
13585;DHT22;6863;48.402;9.994;2022-11-20T04:29:02;2.30;99.90
13585;DHT22;6863;48.402;9.994;2022-11-20T04:31:30;2.40;99.90
13585;DHT22;6863;48.402;9.994;2022-11-20T04:34:00;2.40;99.90
13585;DHT22;6863;48.402;9.994;2022-11-20T04:36:27;2.50;99.90
13585;DHT22;6863;48.402;9.994;2022-11-20T04:38:58;2.60;99.90
13585;DHT22;6863;48.402;9.994;2022-11-20T04:41:26;2.60;99.90
13585;DHT22;6863;48.402;9.994;2022-11-20T04:43:54;2.60;99.90
13585;DHT22;6863;48.402;9.994;2022-11-20T04:46:25;2.70;99.90
13585;DHT22;6863;48.402;9.994;2022-11-20T04:48:51;2.80;99.90
13585;DHT22;6863;48.402;9.994;2022-11-20T04:51:16;2.80;99.90
13585;DHT22;6863;48.402;9.994;2022-11-20T04:53:42;2.90;99.90
13585;DHT22;6863;48.402;9.994;2022-11-20T04:56:09;2.90;99.90
13585;DHT22;6863;48.402;9.994;2022-11-20T04:58:36;2.90;99.90
13585;DHT22;6863;48.402;9.994;2022-11-20T05:03:31;2.80;99.90
13585;DHT22;6863;48.402;9.994;2022-11-20T05:06:01;2.80;99.90
13585;DHT22;6863;48.402;9.994;2022-11-20T05:08:27;2.90;99.90
13585;DHT22;6863;48.402;9.994;2022-11-20T05:10:52;2.90;99.90
13585;DHT22;6863;48.402;9.994;2022-11-20T05:13:18;2.90;99.90
13585;DHT22;6863;48.402;9.994;2022-11-20T05:15:43;3.00;99.90
13585;DHT22;6863;48.402;9.994;2022-11-20T05:18:09;3.00;99.90
13585;DHT22;6863;48.402;9.994;2022-11-20T05:20:34;3.00;99.90
13585;DHT22;6863;48.402;9.994;2022-11-20T05:23:01;3.00;99.90
13585;DHT22;6863;48.402;9.994;2022-11-20T05:25:27;3.00;99.90
13585;DHT22;6863;48.402;9.994;2022-11-20T05:27:53;3.00;99.90
13585;DHT22;6863;48.402;9.994;2022-11-20T05:30:19;2.90;99.90
13585;DHT22;6863;48.402;9.994;2022-11-20T05:32:44;2.90;99.90
13585;DHT22;6863;48.402;9.994;2022-11-20T05:35:10;2.80;99.90
13585;DHT22;6863;48.402;9.994;2022-11-20T05:37:35;2.90;99.90
13585;DHT22;6863;48.402;9.994;2022-11-20T05:40:01;2.90;99.90
13585;DHT22;6863;48.402;9.994;2022-11-20T05:42:30;2.90;99.90
13585;DHT22;6863;48.402;9.994;2022-11-20T05:45:00;3.00;99.90
13585;DHT22;6863;48.402;9.994;2022-11-20T05:47:27;3.00;99.90
13585;DHT22;6863;48.402;9.994;2022-11-20T05:49:53;3.00;99.90
13585;DHT22;6863;48.402;9.994;2022-11-20T05:52:19;3.00;99.90
13585;DHT22;6863;48.402;9.994;2022-11-20T05:54:45;3.00;99.90
13585;DHT22;6863;48.402;9.994;2022-11-20T05:57:10;3.00;99.90
13585;DHT22;6863;48.402;9.994;2022-11-20T05:59:36;3.00;99.90
13585;DHT22;6863;48.402;9.994;2022-11-20T06:02:01;3.00;99.90
13585;DHT22;6863;48.402;9.994;2022-11-20T06:04:27;3.00;99.90
13585;DHT22;6863;48.402;9.994;2022-11-20T06:06:53;3.00;99.90
13585;DHT22;6863;48.402;9.994;2022-11-20T06:09:18;3.00;99.90
13585;DHT22;6863;48.402;9.994;2022-11-20T06:11:44;3.00;99.90
13585;DHT22;6863;48.402;9.994;2022-11-20T06:14:09;3.10;99.90
13585;DHT22;6863;48.402;9.994;2022-11-20T06:16:35;3.10;99.90
13585;DHT22;6863;48.402;9.994;2022-11-20T06:19:00;3.20;99.90
13585;DHT22;6863;48.402;9.994;2022-11-20T06:21:26;3.20;99.90
13585;DHT22;6863;48.402;9.994;2022-11-20T06:23:52;3.30;99.90
13585;DHT22;6863;48.402;9.994;2022-11-20T06:26:21;3.30;99.90
13585;DHT22;6863;48.402;9.994;2022-11-20T06:28:47;3.30;99.90
13585;DHT22;6863;48.402;9.994;2022-11-20T06:31:16;3.40;99.90
13585;DHT22;6863;48.402;9.994;2022-11-20T06:33:43;3.40;99.90
13585;DHT22;6863;48.402;9.994;2022-11-20T06:36:10;3.40;99.90
13585;DHT22;6863;48.402;9.994;2022-11-20T06:38:37;3.50;99.90
13585;DHT22;6863;48.402;9.994;2022-11-20T06:41:04;3.50;99.90
13585;DHT22;6863;48.402;9.994;2022-11-20T06:43:30;3.50;99.90
13585;DHT22;6863;48.402;9.994;2022-11-20T06:45:57;3.60;99.90
13585;DHT22;6863;48.402;9.994;2022-11-20T06:48:24;3.70;99.90
13585;DHT22;6863;48.402;9.994;2022-11-20T06:50:50;3.60;99.90
13585;DHT22;6863;48.402;9.994;2022-11-20T06:53:16;3.60;99.90
13585;DHT22;6863;48.402;9.994;2022-11-20T06:55:45;3.70;99.90
13585;DHT22;6863;48.402;9.994;2022-11-20T06:58:12;3.70;99.90
13585;DHT22;6863;48.402;9.994;2022-11-20T07:00:38;3.70;99.90
13585;DHT22;6863;48.402;9.994;2022-11-20T07:03:05;3.70;99.90
13585;DHT22;6863;48.402;9.994;2022-11-20T07:05:31;3.70;99.90
13585;DHT22;6863;48.402;9.994;2022-11-20T07:07:57;3.70;99.90
13585;DHT22;6863;48.402;9.994;2022-11-20T07:10:24;3.80;99.90
13585;DHT22;6863;48.402;9.994;2022-11-20T07:12:50;3.90;99.90
13585;DHT22;6863;48.402;9.994;2022-11-20T07:15:17;3.90;99.90
13585;DHT22;6863;48.402;9.994;2022-11-20T07:17:43;3.90;99.90
13585;DHT22;6863;48.402;9.994;2022-11-20T07:20:09;3.90;99.90
13585;DHT22;6863;48.402;9.994;2022-11-20T07:22:34;3.90;99.90
13585;DHT22;6863;48.402;9.994;2022-11-20T07:25:00;3.90;99.90
13585;DHT22;6863;48.402;9.994;2022-11-20T07:27:27;4.00;99.90
13585;DHT22;6863;48.402;9.994;2022-11-20T07:29:53;4.00;99.90
13585;DHT22;6863;48.402;9.994;2022-11-20T07:32:18;4.00;99.90
13585;DHT22;6863;48.402;9.994;2022-11-20T07:34:44;4.10;99.90
13585;DHT22;6863;48.402;9.994;2022-11-20T07:37:09;4.10;99.90
13585;DHT22;6863;48.402;9.994;2022-11-20T07:39:35;4.20;99.90
13585;DHT22;6863;48.402;9.994;2022-11-20T07:42:01;4.20;99.90
13585;DHT22;6863;48.402;9.994;2022-11-20T07:44:26;4.20;99.90
13585;DHT22;6863;48.402;9.994;2022-11-20T07:46:52;4.30;99.90
13585;DHT22;6863;48.402;9.994;2022-11-20T07:49:17;4.40;99.90
13585;DHT22;6863;48.402;9.994;2022-11-20T07:51:43;4.40;99.90
13585;DHT22;6863;48.402;9.994;2022-11-20T07:54:08;4.30;99.90
13585;DHT22;6863;48.402;9.994;2022-11-20T07:56:34;4.30;99.90
13585;DHT22;6863;48.402;9.994;2022-11-20T07:59:00;4.40;99.90
13585;DHT22;6863;48.402;9.994;2022-11-20T08:01:25;4.30;99.90
13585;DHT22;6863;48.402;9.994;2022-11-20T08:03:51;4.40;99.90
13585;DHT22;6863;48.402;9.994;2022-11-20T08:06:16;4.40;99.90
13585;DHT22;6863;48.402;9.994;2022-11-20T08:08:43;4.40;99.90
13585;DHT22;6863;48.402;9.994;2022-11-20T08:11:09;4.30;99.90
13585;DHT22;6863;48.402;9.994;2022-11-20T08:13:53;4.30;99.90
13585;DHT22;6863;48.402;9.994;2022-11-20T08:16:41;4.40;99.90
13585;DHT22;6863;48.402;9.994;2022-11-20T08:19:07;4.40;99.90
13585;DHT22;6863;48.402;9.994;2022-11-20T08:21:33;4.40;99.90
13585;DHT22;6863;48.402;9.994;2022-11-20T08:23:59;4.40;99.90
13585;DHT22;6863;48.402;9.994;2022-11-20T08:26:25;4.40;99.90
13585;DHT22;6863;48.402;9.994;2022-11-20T08:28:55;4.40;99.90
13585;DHT22;6863;48.402;9.994;2022-11-20T08:31:21;4.40;99.90
13585;DHT22;6863;48.402;9.994;2022-11-20T08:33:47;4.50;99.90
13585;DHT22;6863;48.402;9.994;2022-11-20T08:36:13;4.50;99.90
13585;DHT22;6863;48.402;9.994;2022-11-20T08:38:39;4.60;99.90
13585;DHT22;6863;48.402;9.994;2022-11-20T08:41:05;4.60;99.90
13585;DHT22;6863;48.402;9.994;2022-11-20T08:43:49;4.60;99.90
13585;DHT22;6863;48.402;9.994;2022-11-20T08:46:15;4.70;99.90
13585;DHT22;6863;48.402;9.994;2022-11-20T08:48:41;4.70;99.90
13585;DHT22;6863;48.402;9.994;2022-11-20T08:51:06;4.70;99.90
13585;DHT22;6863;48.402;9.994;2022-11-20T08:53:32;4.80;99.90
13585;DHT22;6863;48.402;9.994;2022-11-20T08:55:57;4.80;99.90
13585;DHT22;6863;48.402;9.994;2022-11-20T08:58:24;4.90;99.90
13585;DHT22;6863;48.402;9.994;2022-11-20T09:00:50;4.90;99.90
13585;DHT22;6863;48.402;9.994;2022-11-20T09:03:15;4.80;99.90
13585;DHT22;6863;48.402;9.994;2022-11-20T09:05:41;4.90;99.90
13585;DHT22;6863;48.402;9.994;2022-11-20T09:08:08;5.00;99.90
13585;DHT22;6863;48.402;9.994;2022-11-20T09:10:34;5.20;99.90
13585;DHT22;6863;48.402;9.994;2022-11-20T09:13:00;5.90;99.90
13585;DHT22;6863;48.402;9.994;2022-11-20T09:15:26;6.30;99.90
13585;DHT22;6863;48.402;9.994;2022-11-20T09:17:59;6.10;99.90
13585;DHT22;6863;48.402;9.994;2022-11-20T09:20:26;5.70;99.90
13585;DHT22;6863;48.402;9.994;2022-11-20T09:22:54;5.60;99.90
13585;DHT22;6863;48.402;9.994;2022-11-20T09:25:19;5.50;99.90
13585;DHT22;6863;48.402;9.994;2022-11-20T09:27:45;5.40;99.90
13585;DHT22;6863;48.402;9.994;2022-11-20T09:30:12;5.30;99.90
13585;DHT22;6863;48.402;9.994;2022-11-20T09:32:42;5.30;99.90
13585;DHT22;6863;48.402;9.994;2022-11-20T09:35:08;5.30;99.90
13585;DHT22;6863;48.402;9.994;2022-11-20T09:37:34;5.30;99.90
13585;DHT22;6863;48.402;9.994;2022-11-20T09:40:00;5.30;99.90
13585;DHT22;6863;48.402;9.994;2022-11-20T09:45:37;5.30;99.90
13585;DHT22;6863;48.402;9.994;2022-11-20T09:54:19;5.40;99.90
13585;DHT22;6863;48.402;9.994;2022-11-20T09:56:51;5.50;99.90
13585;DHT22;6863;48.402;9.994;2022-11-20T10:00:00;5.60;99.90
13585;DHT22;6863;48.402;9.994;2022-11-20T10:04:55;5.70;99.90
13585;DHT22;6863;48.402;9.994;2022-11-20T10:07:42;5.80;99.90
13585;DHT22;6863;48.402;9.994;2022-11-20T10:10:18;5.80;99.90
13585;DHT22;6863;48.402;9.994;2022-11-20T10:25:18;6.30;99.90
13585;DHT22;6863;48.402;9.994;2022-11-20T10:30:15;6.40;99.90
13585;DHT22;6863;48.402;9.994;2022-11-20T10:32:45;6.40;99.90
13585;DHT22;6863;48.402;9.994;2022-11-20T10:35:27;6.30;99.90
13585;DHT22;6863;48.402;9.994;2022-11-20T10:38:02;6.20;99.90
13585;DHT22;6863;48.402;9.994;2022-11-20T10:40:41;6.40;99.90
13585;DHT22;6863;48.402;9.994;2022-11-20T10:43:13;6.40;99.90
13585;DHT22;6863;48.402;9.994;2022-11-20T10:48:20;6.50;99.90
13585;DHT22;6863;48.402;9.994;2022-11-20T10:56:51;6.40;99.90
13585;DHT22;6863;48.402;9.994;2022-11-20T11:01:51;6.30;99.90
13585;DHT22;6863;48.402;9.994;2022-11-20T11:04:43;6.30;99.90
13585;DHT22;6863;48.402;9.994;2022-11-20T11:07:16;6.40;99.90
13585;DHT22;6863;48.402;9.994;2022-11-20T11:09:49;6.40;99.90
13585;DHT22;6863;48.402;9.994;2022-11-20T11:12:15;6.50;99.90
13585;DHT22;6863;48.402;9.994;2022-11-20T11:14:50;6.60;99.90
13585;DHT22;6863;48.402;9.994;2022-11-20T11:17:31;6.60;99.90
13585;DHT22;6863;48.402;9.994;2022-11-20T11:20:21;6.60;99.90
13585;DHT22;6863;48.402;9.994;2022-11-20T11:22:56;6.50;99.90
13585;DHT22;6863;48.402;9.994;2022-11-20T11:25:30;6.30;99.90
13585;DHT22;6863;48.402;9.994;2022-11-20T11:28:04;6.30;99.90
13585;DHT22;6863;48.402;9.994;2022-11-20T11:30:41;6.20;99.90
13585;DHT22;6863;48.402;9.994;2022-11-20T11:33:28;6.20;99.90
13585;DHT22;6863;48.402;9.994;2022-11-20T11:36:00;6.30;99.90
13585;DHT22;6863;48.402;9.994;2022-11-20T11:41:01;6.20;99.90
13585;DHT22;6863;48.402;9.994;2022-11-20T11:43:30;6.30;99.90
13585;DHT22;6863;48.402;9.994;2022-11-20T11:46:25;6.30;99.90
13585;DHT22;6863;48.402;9.994;2022-11-20T11:49:01;6.50;99.90
13585;DHT22;6863;48.402;9.994;2022-11-20T11:54:22;6.50;99.90
13585;DHT22;6863;48.402;9.994;2022-11-20T11:56:49;6.50;99.90
13585;DHT22;6863;48.402;9.994;2022-11-20T11:59:28;6.50;99.90
13585;DHT22;6863;48.402;9.994;2022-11-20T12:02:02;6.60;99.90
13585;DHT22;6863;48.402;9.994;2022-11-20T12:04:50;6.60;99.90
13585;DHT22;6863;48.402;9.994;2022-11-20T12:07:39;6.60;99.90
13585;DHT22;6863;48.402;9.994;2022-11-20T12:10:15;6.80;99.90
13585;DHT22;6863;48.402;9.994;2022-11-20T12:12:52;7.00;99.90
13585;DHT22;6863;48.402;9.994;2022-11-20T12:15:33;7.10;99.90
13585;DHT22;6863;48.402;9.994;2022-11-20T12:17:59;7.20;99.90
13585;DHT22;6863;48.402;9.994;2022-11-20T12:20:35;7.20;99.90
13585;DHT22;6863;48.402;9.994;2022-11-20T12:23:14;7.20;99.90
13585;DHT22;6863;48.402;9.994;2022-11-20T12:25:47;7.10;99.90
13585;DHT22;6863;48.402;9.994;2022-11-20T12:28:28;7.10;99.90
13585;DHT22;6863;48.402;9.994;2022-11-20T12:31:13;7.20;99.90
13585;DHT22;6863;48.402;9.994;2022-11-20T12:36:32;7.10;99.90
13585;DHT22;6863;48.402;9.994;2022-11-20T12:39:05;7.10;99.90
13585;DHT22;6863;48.402;9.994;2022-11-20T12:55:56;7.40;99.90
13585;DHT22;6863;48.402;9.994;2022-11-20T13:07:04;8.40;99.90
13585;DHT22;6863;48.402;9.994;2022-11-20T13:09:32;9.10;98.60
13585;DHT22;6863;48.402;9.994;2022-11-20T13:12:18;8.90;97.40
13585;DHT22;6863;48.402;9.994;2022-11-20T13:14:57;8.70;98.00
13585;DHT22;6863;48.402;9.994;2022-11-20T13:17:36;9.00;96.90
13585;DHT22;6863;48.402;9.994;2022-11-20T13:20:06;9.00;96.30
13585;DHT22;6863;48.402;9.994;2022-11-20T13:22:49;8.90;96.00
13585;DHT22;6863;48.402;9.994;2022-11-20T13:25:46;8.80;96.20
13585;DHT22;6863;48.402;9.994;2022-11-20T13:30:52;8.90;96.10
13585;DHT22;6863;48.402;9.994;2022-11-20T13:33:36;8.70;96.20
13585;DHT22;6863;48.402;9.994;2022-11-20T13:36:05;8.70;96.30
13585;DHT22;6863;48.402;9.994;2022-11-20T13:38:47;8.60;95.70
13585;DHT22;6863;48.402;9.994;2022-11-20T13:41:41;9.00;95.50
13585;DHT22;6863;48.402;9.994;2022-11-20T13:46:58;9.20;93.80
13585;DHT22;6863;48.402;9.994;2022-11-20T13:49:29;9.20;92.90
13585;DHT22;6863;48.402;9.994;2022-11-20T13:55:14;9.10;93.40
13585;DHT22;6863;48.402;9.994;2022-11-20T14:00:57;8.80;93.90
13585;DHT22;6863;48.402;9.994;2022-11-20T14:03:25;8.60;94.20
13585;DHT22;6863;48.402;9.994;2022-11-20T14:06:04;8.50;94.00
13585;DHT22;6863;48.402;9.994;2022-11-20T14:08:39;8.30;94.10
13585;DHT22;6863;48.402;9.994;2022-11-20T14:11:35;8.20;94.30
13585;DHT22;6863;48.402;9.994;2022-11-20T14:14:03;8.10;94.30
13585;DHT22;6863;48.402;9.994;2022-11-20T14:16:36;8.10;94.50
13585;DHT22;6863;48.402;9.994;2022-11-20T14:21:53;10.40;89.80
13585;DHT22;6863;48.402;9.994;2022-11-20T14:24:24;10.80;88.20
13585;DHT22;6863;48.402;9.994;2022-11-20T14:26:51;10.50;86.40
13585;DHT22;6863;48.402;9.994;2022-11-20T14:29:23;9.80;88.30
13585;DHT22;6863;48.402;9.994;2022-11-20T14:31:53;9.20;90.40
13585;DHT22;6863;48.402;9.994;2022-11-20T14:34:25;8.80;91.40
13585;DHT22;6863;48.402;9.994;2022-11-20T14:36:59;8.70;92.10
13585;DHT22;6863;48.402;9.994;2022-11-20T14:41:55;8.30;92.80
13585;DHT22;6863;48.402;9.994;2022-11-20T14:44:25;8.20;92.70
13585;DHT22;6863;48.402;9.994;2022-11-20T14:46:52;8.10;92.60
13585;DHT22;6863;48.402;9.994;2022-11-20T14:49:19;7.90;92.50
13585;DHT22;6863;48.402;9.994;2022-11-20T14:51:45;8.00;93.10
13585;DHT22;6863;48.402;9.994;2022-11-20T14:54:14;8.90;92.40
13585;DHT22;6863;48.402;9.994;2022-11-20T14:56:40;10.20;90.10
13585;DHT22;6863;48.402;9.994;2022-11-20T14:59:07;11.10;85.40
13585;DHT22;6863;48.402;9.994;2022-11-20T15:01:34;11.20;83.50
13585;DHT22;6863;48.402;9.994;2022-11-20T15:04:10;10.30;83.40
13585;DHT22;6863;48.402;9.994;2022-11-20T15:06:37;9.60;87.00
13585;DHT22;6863;48.402;9.994;2022-11-20T15:09:04;8.90;89.30
13585;DHT22;6863;48.402;9.994;2022-11-20T15:11:34;8.40;90.70
13585;DHT22;6863;48.402;9.994;2022-11-20T15:14:06;8.00;92.00
13585;DHT22;6863;48.402;9.994;2022-11-20T15:16:32;7.80;93.20
13585;DHT22;6863;48.402;9.994;2022-11-20T15:18:58;7.60;93.50
13585;DHT22;6863;48.402;9.994;2022-11-20T15:21:24;7.50;93.80
13585;DHT22;6863;48.402;9.994;2022-11-20T15:23:52;7.40;94.10
13585;DHT22;6863;48.402;9.994;2022-11-20T15:26:26;7.30;94.80
13585;DHT22;6863;48.402;9.994;2022-11-20T15:28:53;7.20;95.40
13585;DHT22;6863;48.402;9.994;2022-11-20T15:31:21;7.10;96.00
13585;DHT22;6863;48.402;9.994;2022-11-20T15:33:47;6.90;96.70
13585;DHT22;6863;48.402;9.994;2022-11-20T15:36:13;6.70;98.00
13585;DHT22;6863;48.402;9.994;2022-11-20T15:38:39;6.50;99.10
13585;DHT22;6863;48.402;9.994;2022-11-20T15:41:05;6.30;99.90
13585;DHT22;6863;48.402;9.994;2022-11-20T15:43:30;6.10;99.90
13585;DHT22;6863;48.402;9.994;2022-11-20T15:46:00;6.00;99.90
13585;DHT22;6863;48.402;9.994;2022-11-20T15:53:35;5.90;99.90
13585;DHT22;6863;48.402;9.994;2022-11-20T15:56:01;5.90;99.90
13585;DHT22;6863;48.402;9.994;2022-11-20T15:58:29;5.80;99.90
13585;DHT22;6863;48.402;9.994;2022-11-20T16:00:55;5.70;99.90
13585;DHT22;6863;48.402;9.994;2022-11-20T16:03:22;5.70;99.90
13585;DHT22;6863;48.402;9.994;2022-11-20T16:05:48;5.70;99.90
13585;DHT22;6863;48.402;9.994;2022-11-20T16:08:14;5.70;99.90
13585;DHT22;6863;48.402;9.994;2022-11-20T16:10:40;5.70;99.90
13585;DHT22;6863;48.402;9.994;2022-11-20T16:13:15;5.70;99.90
13585;DHT22;6863;48.402;9.994;2022-11-20T16:16:04;5.60;99.90
13585;DHT22;6863;48.402;9.994;2022-11-20T16:18:30;5.60;99.90
13585;DHT22;6863;48.402;9.994;2022-11-20T16:20:56;5.50;99.90
13585;DHT22;6863;48.402;9.994;2022-11-20T16:23:22;5.50;99.90
13585;DHT22;6863;48.402;9.994;2022-11-20T16:25:49;5.40;99.90
13585;DHT22;6863;48.402;9.994;2022-11-20T16:28:15;5.40;99.90
13585;DHT22;6863;48.402;9.994;2022-11-20T16:30:41;5.40;99.90
13585;DHT22;6863;48.402;9.994;2022-11-20T16:33:14;5.30;99.90
13585;DHT22;6863;48.402;9.994;2022-11-20T16:35:40;5.30;99.90
13585;DHT22;6863;48.402;9.994;2022-11-20T16:38:06;5.30;99.90
13585;DHT22;6863;48.402;9.994;2022-11-20T16:40:31;5.30;99.90
13585;DHT22;6863;48.402;9.994;2022-11-20T16:42:57;5.20;99.90
13585;DHT22;6863;48.402;9.994;2022-11-20T16:45:23;5.20;99.90
13585;DHT22;6863;48.402;9.994;2022-11-20T16:47:48;5.20;99.90
13585;DHT22;6863;48.402;9.994;2022-11-20T16:50:14;5.10;99.90
13585;DHT22;6863;48.402;9.994;2022-11-20T16:52:40;5.10;99.90
13585;DHT22;6863;48.402;9.994;2022-11-20T16:55:06;5.00;99.90
13585;DHT22;6863;48.402;9.994;2022-11-20T16:57:32;5.00;99.90
13585;DHT22;6863;48.402;9.994;2022-11-20T16:59:58;4.90;99.90
13585;DHT22;6863;48.402;9.994;2022-11-20T17:02:24;4.80;99.90
13585;DHT22;6863;48.402;9.994;2022-11-20T17:04:51;4.70;99.90
13585;DHT22;6863;48.402;9.994;2022-11-20T17:07:17;4.70;99.90
13585;DHT22;6863;48.402;9.994;2022-11-20T17:09:42;4.70;99.90
13585;DHT22;6863;48.402;9.994;2022-11-20T17:12:08;4.70;99.90
13585;DHT22;6863;48.402;9.994;2022-11-20T17:14:34;4.60;99.90
13585;DHT22;6863;48.402;9.994;2022-11-20T17:17:00;4.70;99.90
13585;DHT22;6863;48.402;9.994;2022-11-20T17:19:25;4.70;99.90
13585;DHT22;6863;48.402;9.994;2022-11-20T17:21:51;4.70;99.90
13585;DHT22;6863;48.402;9.994;2022-11-20T17:24:16;4.60;99.90
13585;DHT22;6863;48.402;9.994;2022-11-20T17:26:43;4.70;99.90
13585;DHT22;6863;48.402;9.994;2022-11-20T17:29:13;4.70;99.90
13585;DHT22;6863;48.402;9.994;2022-11-20T17:31:39;4.70;99.90
13585;DHT22;6863;48.402;9.994;2022-11-20T17:34:07;4.70;99.90
13585;DHT22;6863;48.402;9.994;2022-11-20T17:36:33;4.70;99.90
13585;DHT22;6863;48.402;9.994;2022-11-20T17:39:02;4.60;99.90
13585;DHT22;6863;48.402;9.994;2022-11-20T17:41:28;4.60;99.90
13585;DHT22;6863;48.402;9.994;2022-11-20T17:43:56;4.60;99.90
13585;DHT22;6863;48.402;9.994;2022-11-20T17:46:24;4.60;99.90
13585;DHT22;6863;48.402;9.994;2022-11-20T17:48:50;4.60;99.90
13585;DHT22;6863;48.402;9.994;2022-11-20T17:51:25;4.60;99.90